Terminal Aerodrome Forecast
Issued by NWS

Home | Current Version | Previous Version | Text Only | Print | Product List | Glossary On
Versions: 1 2 3 4 5 6 7 8 9 10 11 12 13 14 15 16 17 18
000
FTUS43 KJKL 211244 AAA
TAFSME
TAF AMD
KSME 211244Z 2113/2212 19009G20KT P6SM VCSH SCT030 BKN060
      WS020/21040KT
      TEMPO 2113/2115 BKN030
     FM211500 21009KT P6SM VCSH BKN040
     FM211800 27007KT P6SM -SHRA OVC025
     FM212100 VRB05KT 4SM -SHRA OVC015
     FM220600 VRB03KT 2SM SHRA OVC005=

USA.gov is the U.S. government's official web portal to all federal, state and local government web resources and services.